Time,TemperatureF,DewpointF,PressureIn,WindDirection,WindDirectionDegrees,WindSpeedMPH,WindSpeedGustMPH,Humidity,HourlyPrecipIn,Conditions,Clouds,dailyrainin,SoftwareType,DateUTC
2013-01-24 00:10:00,-7.2,-16.8,30.03,West,259,0.0,0.0,62,0.00,BKN,BKN,0.00,WeatherDisplay:10.37,2013-01-24 05:10:00,
2013-01-24 00:19:00,-6.9,-16.2,30.02,WSW,251,0.0,0.0,63,0.00,BKN,BKN,0.00,WeatherDisplay:10.37,2013-01-24 05:19:00,
2013-01-24 00:30:00,-7.4,-17.3,30.01,WNW,287,0.0,0.0,61,0.00,BKN,BKN,0.00,WeatherDisplay:10.37,2013-01-24 05:30:00,
2013-01-24 00:39:00,-6.7,-16.4,30.02,West,262,0.0,0.0,62,0.00,BKN,BKN,0.00,WeatherDisplay:10.37,2013-01-24 05:39:00,
2013-01-24 00:50:00,-7.4,-17.0,30.03,West,269,0.0,0.0,62,0.00,BKN,BKN,0.00,WeatherDisplay:10.37,2013-01-24 05:50:00,
2013-01-24 00:59:00,-7.4,-17.7,30.01,WSW,241,0.0,0.0,60,0.00,BKN,BKN,0.00,WeatherDisplay:10.37,2013-01-24 05:59:00,
2013-01-24 01:10:00,-8.1,-18.3,30.01,NW,313,0.0,0.0,60,0.00,BKN,BKN,0.00,WeatherDisplay:10.37,2013-01-24 06:10:00,
2013-01-24 01:20:00,-7.9,-17.2,30.02,West,279,0.0,0.0,63,0.00,BKN,BKN,0.00,WeatherDisplay:10.37,2013-01-24 06:20:00,
2013-01-24 01:30:00,-8.2,-17.5,30.02,NW,304,0.0,0.0,63,0.00,BKN,BKN,0.00,WeatherDisplay:10.37,2013-01-24 06:30:00,
2013-01-24 01:40:00,-8.3,-17.6,30.01,WSW,253,0.0,0.0,63,0.00,BKN,BKN,0.00,WeatherDisplay:10.37,2013-01-24 06:40:00,
2013-01-24 01:50:00,-8.4,-17.9,30.02,West,273,0.0,0.0,62,0.00,BKN,BKN,0.00,WeatherDisplay:10.37,2013-01-24 06:50:00,
2013-01-24 01:59:00,-8.3,-17.6,30.03,WSW,256,0.0,0.0,63,0.00,BKN,BKN,0.00,WeatherDisplay:10.37,2013-01-24 06:59:00,
2013-01-24 02:09:00,-8.7,-18.5,30.02,West,271,0.0,0.0,61,0.00,BKN,BKN,0.00,WeatherDisplay:10.37,2013-01-24 07:09:00,
2013-01-24 02:20:00,-8.4,-18.3,30.01,West,278,0.0,0.0,61,0.00,BKN,BKN,0.00,WeatherDisplay:10.37,2013-01-24 07:20:00,
2013-01-24 02:30:00,-8.3,-17.6,30.02,West,260,0.0,0.0,63,0.00,BKN,BKN,0.00,WeatherDisplay:10.37,2013-01-24 07:30:00,
2013-01-24 02:40:00,-8.3,-17.6,30.02,West,267,0.0,0.0,63,0.00,BKN,BKN,0.00,WeatherDisplay:10.37,2013-01-24 07:40:00,
2013-01-24 02:50:00,-8.5,-18.0,30.00,West,281,0.0,0.0,62,0.00,BKN,BKN,0.00,WeatherDisplay:10.37,2013-01-24 07:50:00,
2013-01-24 03:00:00,-8.7,-17.9,30.01,West,259,0.0,0.0,63,0.00,BKN,BKN,0.00,WeatherDisplay:10.37,2013-01-24 08:00:00,
2013-01-24 03:10:00,-8.5,-18.4,30.02,West,271,0.0,0.0,61,0.00,BKN,BKN,0.00,WeatherDisplay:10.37,2013-01-24 08:10:00,
2013-01-24 03:20:00,-8.5,-18.0,30.00,WSW,248,0.0,0.0,62,0.00,BKN,BKN,0.00,WeatherDisplay:10.37,2013-01-24 08:20:00,
2013-01-24 03:30:00,-8.9,-18.4,30.00,West,271,0.0,0.0,62,0.00,BKN,BKN,0.00,WeatherDisplay:10.37,2013-01-24 08:30:00,
2013-01-24 03:40:00,-9.2,-19.0,30.00,West,278,0.0,0.0,61,0.00,BKN,BKN,0.00,WeatherDisplay:10.37,2013-01-24 08:40:00,
2013-01-24 03:50:00,-9.4,-19.2,30.01,WNW,298,0.0,0.0,61,0.00,BKN,BKN,0.00,WeatherDisplay:10.37,2013-01-24 08:50:00,
2013-01-24 04:00:00,-9.2,-18.7,30.00,WSW,241,0.0,0.0,62,0.00,BKN,BKN,0.00,WeatherDisplay:10.37,2013-01-24 09:00:00,
2013-01-24 04:10:00,-9.3,-19.1,30.00,WNW,290,1.0,0.0,61,0.00,BKN,BKN,0.00,WeatherDisplay:10.37,2013-01-24 09:10:00,
2013-01-24 04:20:00,-9.2,-18.4,30.00,WNW,290,0.0,0.0,63,0.00,BKN,BKN,0.00,WeatherDisplay:10.37,2013-01-24 09:20:00,
2013-01-24 04:30:00,-9.2,-19.0,30.00,West,279,0.0,0.0,61,0.00,BKN,BKN,0.00,WeatherDisplay:10.37,2013-01-24 09:30:00,
2013-01-24 04:40:00,-9.2,-19.0,29.99,WNW,295,3.0,0.0,61,0.00,BKN,BKN,0.00,WeatherDisplay:10.37,2013-01-24 09:40:00,
2013-01-24 04:50:00,-9.2,-19.1,29.99,WNW,293,1.0,0.0,61,0.00,BKN,BKN,0.00,WeatherDisplay:10.37,2013-01-24 09:50:00,
2013-01-24 05:00:00,-8.9,-18.7,30.01,WNW,301,0.0,0.0,61,0.00,BKN,BKN,0.00,WeatherDisplay:10.37,2013-01-24 10:00:00,
2013-01-24 05:10:00,-9.2,-19.4,29.99,WNW,296,3.0,0.0,60,0.00,BKN,BKN,0.00,WeatherDisplay:10.37,2013-01-24 10:10:00,
2013-01-24 05:20:00,-8.9,-19.3,29.99,WNW,288,3.0,0.0,59,0.00,BKN,BKN,0.00,WeatherDisplay:10.37,2013-01-24 10:20:00,
2013-01-24 05:30:00,-8.9,-19.0,30.01,WNW,286,3.0,0.0,60,0.00,BKN,BKN,0.00,WeatherDisplay:10.37,2013-01-24 10:30:00,
2013-01-24 05:40:00,-9.2,-19.4,30.00,WNW,293,0.0,0.0,60,0.00,BKN,BKN,0.00,WeatherDisplay:10.37,2013-01-24 10:40:00,
2013-01-24 05:50:00,-9.2,-19.4,30.00,WNW,283,0.0,0.0,60,0.00,BKN,BKN,0.00,WeatherDisplay:10.37,2013-01-24 10:50:00,
2013-01-24 06:00:00,-9.2,-19.0,30.01,WNW,295,0.0,0.0,61,0.00,BKN,BKN,0.00,WeatherDisplay:10.37,2013-01-24 11:00:00,
2013-01-24 06:10:00,-9.2,-19.7,30.02,WNW,289,1.0,0.0,59,0.00,BKN,BKN,0.00,WeatherDisplay:10.37,2013-01-24 11:10:00,
2013-01-24 06:20:00,-9.2,-19.7,30.02,WNW,296,0.0,0.0,59,0.00,BKN,BKN,0.00,WeatherDisplay:10.37,2013-01-24 11:20:00,
2013-01-24 06:30:00,-9.4,-19.9,30.02,West,275,0.0,0.0,59,0.00,BKN,BKN,0.00,WeatherDisplay:10.37,2013-01-24 11:30:00,
2013-01-24 06:40:00,-9.4,-19.9,30.01,WNW,287,1.0,0.0,59,0.00,BKN,BKN,0.00,WeatherDisplay:10.37,2013-01-24 11:40:00,
2013-01-24 06:50:00,-9.4,-19.5,30.02,West,280,0.0,0.0,60,0.00,BKN,BKN,0.00,WeatherDisplay:10.37,2013-01-24 11:50:00,
2013-01-24 06:59:00,-9.8,-20.2,30.03,NNW,337,0.0,0.0,59,0.00,BKN,BKN,0.00,WeatherDisplay:10.37,2013-01-24 11:59:00,
2013-01-24 07:09:00,-9.8,-20.2,30.03,NW,306,0.0,0.0,59,0.00,BKN,BKN,0.00,WeatherDisplay:10.37,2013-01-24 12:09:00,
2013-01-24 07:19:00,-9.4,-19.5,30.02,WNW,290,0.0,0.0,60,0.00,BKN,BKN,0.00,WeatherDisplay:10.37,2013-01-24 12:19:00,
2013-01-24 07:30:00,-9.2,-19.7,30.02,West,264,1.0,0.0,59,0.00,BKN,BKN,0.00,WeatherDisplay:10.37,2013-01-24 12:30:00,
2013-01-24 07:40:00,-8.5,-19.0,30.03,West,261,1.0,0.0,59,0.00,BKN,BKN,0.00,WeatherDisplay:10.37,2013-01-24 12:40:00,
2013-01-24 07:49:00,-8.5,-19.7,30.04,WNW,294,0.0,0.0,57,0.00,BKN,BKN,0.00,WeatherDisplay:10.37,2013-01-24 12:49:00,
2013-01-24 07:59:00,-8.1,-19.0,30.02,West,275,0.0,0.0,58,0.00,BKN,BKN,0.00,WeatherDisplay:10.37,2013-01-24 12:59:00,
2013-01-24 08:09:00,-7.4,-18.7,30.03,West,279,0.0,0.0,57,0.00,BKN,BKN,0.00,WeatherDisplay:10.37,2013-01-24 13:09:00,
2013-01-24 08:19:00,-6.9,-18.1,30.03,West,264,6.0,0.0,57,0.00,BKN,BKN,0.00,WeatherDisplay:10.37,2013-01-24 13:19:00,
2013-01-24 08:30:00,-6.7,-18.0,30.02,West,280,3.0,0.0,57,0.00,BKN,BKN,0.00,WeatherDisplay:10.37,2013-01-24 13:30:00,
2013-01-24 08:40:00,-6.2,-18.2,30.01,West,281,1.0,0.0,55,0.00,BKN,BKN,0.00,WeatherDisplay:10.37,2013-01-24 13:40:00,
2013-01-24 08:49:00,-5.6,-17.7,30.03,NW,321,0.0,0.0,55,0.00,BKN,BKN,0.00,WeatherDisplay:10.37,2013-01-24 13:49:00,
2013-01-24 08:59:00,-4.7,-17.2,30.03,West,281,0.0,0.0,54,0.00,BKN,BKN,0.00,WeatherDisplay:10.37,2013-01-24 13:59:00,
2013-01-24 09:09:00,-4.0,-17.2,30.02,WNW,294,3.0,0.0,52,0.00,BKN,BKN,0.00,WeatherDisplay:10.37,2013-01-24 14:09:00,
2013-01-24 09:19:00,-3.8,-17.8,30.02,WNW,297,2.0,0.0,50,0.00,BKN,BKN,0.00,WeatherDisplay:10.37,2013-01-24 14:19:00,
2013-01-24 09:30:00,-3.1,-17.1,30.03,NW,306,2.0,0.0,50,0.00,BKN,BKN,0.00,WeatherDisplay:10.37,2013-01-24 14:30:00,
2013-01-24 09:40:00,-2.6,-17.0,30.03,West,272,5.0,0.0,49,0.00,BKN,BKN,0.00,WeatherDisplay:10.37,2013-01-24 14:40:00,
2013-01-24 09:50:00,-1.7,-16.7,30.03,WNW,284,9.0,0.0,48,0.00,BKN,BKN,0.00,WeatherDisplay:10.37,2013-01-24 14:50:00,
2013-01-24 09:59:00,-1.1,-16.1,30.02,West,266,6.0,0.0,48,0.00,BKN,BKN,0.00,WeatherDisplay:10.37,2013-01-24 14:59:00,
2013-01-24 10:10:00,-0.2,-16.1,30.04,WNW,293,3.0,0.0,46,0.00,BKN,BKN,0.00,WeatherDisplay:10.37,2013-01-24 15:10:00,
2013-01-24 10:20:00,0.7,-15.3,30.04,WNW,295,0.0,0.0,46,0.00,BKN,BKN,0.00,WeatherDisplay:10.37,2013-01-24 15:20:00,
2013-01-24 10:30:00,1.4,-14.2,30.03,WSW,250,2.0,0.0,47,0.00,BKN,BKN,0.00,WeatherDisplay:10.37,2013-01-24 15:30:00,
2013-01-24 10:40:00,1.9,-14.6,30.03,WNW,287,5.0,0.0,45,0.00,BKN,BKN,0.00,WeatherDisplay:10.37,2013-01-24 15:40:00,
2013-01-24 10:50:00,2.3,-14.2,30.04,West,281,3.0,0.0,45,0.00,BKN,BKN,0.00,WeatherDisplay:10.37,2013-01-24 15:50:00,
2013-01-24 10:59:00,3.0,-13.6,30.04,WNW,287,2.0,0.0,45,0.00,BKN,BKN,0.00,WeatherDisplay:10.37,2013-01-24 15:59:00,
2013-01-24 11:09:00,3.4,-13.7,30.02,West,260,8.0,0.0,44,0.00,BKN,BKN,0.00,WeatherDisplay:10.37,2013-01-24 16:09:00,
2013-01-24 11:19:00,3.4,-13.7,30.02,West,281,9.0,0.0,44,0.00,BKN,BKN,0.00,WeatherDisplay:10.37,2013-01-24 16:19:00,
2013-01-24 11:29:00,2.7,-13.9,30.03,WNW,293,1.0,0.0,45,0.00,BKN,BKN,0.00,WeatherDisplay:10.37,2013-01-24 16:29:00,
2013-01-24 11:39:00,3.7,-13.8,30.02,West,279,5.0,0.0,43,0.00,BKN,BKN,0.00,WeatherDisplay:10.37,2013-01-24 16:39:00,
2013-01-24 11:49:00,4.1,-13.0,30.01,West,262,5.0,0.0,44,0.00,BKN,BKN,0.00,WeatherDisplay:10.37,2013-01-24 16:49:00,
2013-01-24 11:59:00,4.6,-13.9,30.01,WNW,283,9.0,0.0,41,0.00,BKN,BKN,0.00,WeatherDisplay:10.37,2013-01-24 16:59:00,
2013-01-24 12:09:00,5.2,-12.5,30.01,West,274,7.0,0.0,43,0.00,BKN,BKN,0.00,WeatherDisplay:10.37,2013-01-24 17:09:00,
2013-01-24 12:19:00,5.0,-12.2,30.02,WNW,286,5.0,0.0,44,0.00,BKN,BKN,0.00,WeatherDisplay:10.37,2013-01-24 17:19:00,
2013-01-24 12:29:00,5.2,-13.0,30.01,WSW,258,9.0,0.0,42,0.00,BKN,BKN,0.00,WeatherDisplay:10.37,2013-01-24 17:29:00,
2013-01-24 12:39:00,5.0,-13.1,30.00,West,264,6.0,0.0,42,0.00,BKN,BKN,0.00,WeatherDisplay:10.37,2013-01-24 17:39:00,
2013-01-24 12:49:00,4.7,-13.8,30.00,West,274,3.0,0.0,41,0.00,BKN,BKN,0.00,WeatherDisplay:10.37,2013-01-24 17:49:00,
2013-01-24 13:00:00,5.3,-12.9,30.00,West,271,9.0,0.0,42,0.00,BKN,BKN,0.00,WeatherDisplay:10.37,2013-01-24 18:00:00,
2013-01-24 13:09:00,6.2,-11.6,30.01,West,273,1.0,0.0,43,0.00,BKN,BKN,0.00,WeatherDisplay:10.37,2013-01-24 18:09:00,
2013-01-24 13:20:00,6.1,-12.6,29.99,WNW,295,0.0,0.0,41,0.00,BKN,BKN,0.00,WeatherDisplay:10.37,2013-01-24 18:20:00,
2013-01-24 13:30:00,6.6,-12.2,29.99,West,276,8.0,0.0,41,0.00,BKN,BKN,0.00,WeatherDisplay:10.37,2013-01-24 18:30:00,
2013-01-24 13:40:00,6.8,-11.5,29.98,SSW,207,3.0,0.0,42,0.00,BKN,BKN,0.00,WeatherDisplay:10.37,2013-01-24 18:40:00,
2013-01-24 13:49:00,6.8,-11.5,29.97,South,190,2.0,0.0,42,0.00,BKN,BKN,0.00,WeatherDisplay:10.37,2013-01-24 18:49:00,
2013-01-24 13:59:00,6.8,-9.6,29.99,South,189,2.0,0.0,46,0.00,BKN,BKN,0.00,WeatherDisplay:10.37,2013-01-24 18:59:00,
2013-01-24 14:09:00,7.4,-10.0,29.99,SSW,195,5.0,0.0,44,0.00,BKN,BKN,0.00,WeatherDisplay:10.37,2013-01-24 19:09:00,
2013-01-24 14:19:00,7.7,-10.6,29.97,SSW,192,6.0,0.0,42,0.00,BKN,BKN,0.00,WeatherDisplay:10.37,2013-01-24 19:19:00,
2013-01-24 14:29:00,8.8,-9.2,29.97,SSW,192,1.0,0.0,43,0.00,BKN,BKN,0.00,WeatherDisplay:10.37,2013-01-24 19:29:00,
2013-01-24 14:40:00,8.8,-11.2,29.97,WNW,290,3.0,0.0,39,0.00,BKN,BKN,0.00,WeatherDisplay:10.37,2013-01-24 19:40:00,
2013-01-24 14:49:00,8.6,-11.3,30.00,WNW,286,1.0,0.0,39,0.00,BKN,BKN,0.00,WeatherDisplay:10.37,2013-01-24 19:49:00,
2013-01-24 14:59:00,7.9,-12.0,30.01,WNW,282,6.0,0.0,39,0.00,BKN,BKN,0.00,WeatherDisplay:10.37,2013-01-24 19:59:00,
2013-01-24 15:09:00,7.9,-12.0,30.00,SW,234,8.0,0.0,39,0.00,BKN,BKN,0.00,WeatherDisplay:10.37,2013-01-24 20:09:00,
2013-01-24 15:19:00,7.7,-11.2,30.00,West,269,9.0,0.0,41,0.00,BKN,BKN,0.00,WeatherDisplay:10.37,2013-01-24 20:19:00,
2013-01-24 15:29:00,7.0,-12.3,30.00,SW,231,3.0,0.0,40,0.00,BKN,BKN,0.00,WeatherDisplay:10.37,2013-01-24 20:29:00,
2013-01-24 15:39:00,6.4,-11.8,30.01,West,259,3.0,0.0,42,0.00,BKN,BKN,0.00,WeatherDisplay:10.37,2013-01-24 20:39:00,
2013-01-24 15:50:00,6.1,-12.6,30.00,SSW,198,1.0,0.0,41,0.00,BKN,BKN,0.00,WeatherDisplay:10.37,2013-01-24 20:50:00,
2013-01-24 15:59:00,5.8,-12.4,30.00,SSW,194,0.0,0.0,42,0.00,BKN,BKN,0.00,WeatherDisplay:10.37,2013-01-24 20:59:00,
2013-01-24 16:10:00,5.7,-13.0,30.01,West,259,6.0,0.0,41,0.00,BKN,BKN,0.00,WeatherDisplay:10.37,2013-01-24 21:10:00,
2013-01-24 16:19:00,5.2,-12.5,30.02,NW,307,9.0,0.0,43,0.00,BKN,BKN,0.00,WeatherDisplay:10.37,2013-01-24 21:19:00,
2013-01-24 16:29:00,5.0,-12.7,30.03,SSW,211,1.0,0.0,43,0.00,BKN,BKN,0.00,WeatherDisplay:10.37,2013-01-24 21:29:00,
2013-01-24 16:39:00,5.0,-12.7,30.02,SW,226,6.0,0.0,43,0.00,BKN,BKN,0.00,WeatherDisplay:10.37,2013-01-24 21:39:00,
2013-01-24 16:49:00,4.6,-13.0,30.01,WSW,253,6.0,0.0,43,0.00,BKN,BKN,0.00,WeatherDisplay:10.37,2013-01-24 21:49:00,
2013-01-24 16:59:00,4.6,-13.0,30.02,WSW,253,3.0,0.0,43,0.00,BKN,BKN,0.00,WeatherDisplay:10.37,2013-01-24 21:59:00,
2013-01-24 17:09:00,4.6,-12.5,30.03,WSW,238,6.0,0.0,44,0.00,BKN,BKN,0.00,WeatherDisplay:10.37,2013-01-24 22:09:00,
2013-01-24 17:20:00,4.6,-12.1,30.02,SW,231,5.0,0.0,45,0.00,BKN,BKN,0.00,WeatherDisplay:10.37,2013-01-24 22:20:00,
2013-01-24 17:30:00,4.5,-12.2,30.02,WSW,237,5.0,0.0,45,0.00,BKN,BKN,0.00,WeatherDisplay:10.37,2013-01-24 22:30:00,
2013-01-24 17:40:00,4.5,-12.7,30.02,West,260,3.0,0.0,44,0.00,BKN,BKN,0.00,WeatherDisplay:10.37,2013-01-24 22:40:00,
2013-01-24 17:50:00,4.3,-12.0,30.03,SW,235,5.0,0.0,46,0.00,BKN,BKN,0.00,WeatherDisplay:10.37,2013-01-24 22:50:00,
2013-01-24 17:59:00,4.5,-12.7,30.03,WSW,253,3.0,0.0,44,0.00,BKN,BKN,0.00,WeatherDisplay:10.37,2013-01-24 22:59:00,
2013-01-24 18:10:00,4.5,-11.4,30.02,WSW,251,9.0,0.0,47,0.00,BKN,BKN,0.00,WeatherDisplay:10.37,2013-01-24 23:10:00,
2013-01-24 18:20:00,4.6,-8.4,30.04,WSW,250,9.0,0.0,54,0.00,BKN,BKN,0.00,WeatherDisplay:10.37,2013-01-24 23:20:00,
2013-01-24 18:30:00,4.5,-9.7,30.04,West,269,9.0,0.0,51,0.00,BKN,BKN,0.00,WeatherDisplay:10.37,2013-01-24 23:30:00,
2013-01-24 18:40:00,4.2,-10.0,30.04,WNW,300,5.0,0.0,51,0.00,BKN,BKN,0.00,WeatherDisplay:10.37,2013-01-24 23:40:00,
2013-01-24 18:49:00,4.1,-11.7,30.05,West,280,9.0,0.0,47,0.00,BKN,BKN,0.00,WeatherDisplay:10.37,2013-01-24 23:49:00,
2013-01-24 18:59:00,3.7,-11.6,30.05,West,263,8.0,0.0,48,0.00,BKN,BKN,0.00,WeatherDisplay:10.37,2013-01-24 23:59:00,
2013-01-24 19:10:00,3.9,-11.9,30.04,West,276,5.0,0.0,47,0.00,BKN,BKN,0.00,WeatherDisplay:10.37,2013-01-25 00:10:00,
2013-01-24 19:20:00,3.6,-11.8,30.04,West,270,3.0,0.0,48,0.00,BKN,BKN,0.00,WeatherDisplay:10.37,2013-01-25 00:20:00,
2013-01-24 19:29:00,3.4,-12.4,30.03,West,268,8.0,0.0,47,0.00,BKN,BKN,0.00,WeatherDisplay:10.37,2013-01-25 00:29:00,
2013-01-24 19:39:00,3.4,-12.4,30.04,West,266,9.0,0.0,47,0.00,BKN,BKN,0.00,WeatherDisplay:10.37,2013-01-25 00:39:00,
2013-01-24 19:49:00,3.4,-13.2,30.06,West,279,7.0,0.0,45,0.00,BKN,BKN,0.00,WeatherDisplay:10.37,2013-01-25 00:49:00,
2013-01-24 19:59:00,3.2,-13.0,30.05,West,261,8.0,0.0,46,0.00,BKN,BKN,0.00,WeatherDisplay:10.37,2013-01-25 00:59:00,
2013-01-24 20:10:00,3.1,-13.5,30.04,West,272,2.0,0.0,45,0.00,BKN,BKN,0.00,WeatherDisplay:10.37,2013-01-25 01:10:00,
2013-01-24 20:19:00,2.8,-13.3,30.06,WSW,250,5.0,0.0,46,0.00,BKN,BKN,0.00,WeatherDisplay:10.37,2013-01-25 01:19:00,
2013-01-24 20:29:00,2.8,-11.7,30.07,West,268,7.0,0.0,50,0.00,BKN,BKN,0.00,WeatherDisplay:10.37,2013-01-25 01:29:00,
2013-01-24 20:39:00,2.5,-11.6,30.07,WSW,255,2.0,0.0,51,0.00,BKN,BKN,0.00,WeatherDisplay:10.37,2013-01-25 01:39:00,
2013-01-24 20:49:00,2.5,-13.2,30.08,WNW,300,6.0,0.0,47,0.00,BKN,BKN,0.00,WeatherDisplay:10.37,2013-01-25 01:49:00,
2013-01-24 20:59:00,2.1,-14.0,30.08,WNW,282,6.0,0.0,46,0.00,BKN,BKN,0.00,WeatherDisplay:10.37,2013-01-25 01:59:00,
2013-01-24 21:09:00,2.1,-14.0,30.09,West,281,2.0,0.0,46,0.00,BKN,BKN,0.00,WeatherDisplay:10.37,2013-01-25 02:09:00,
2013-01-24 21:19:00,1.9,-14.1,30.09,WNW,293,3.0,0.0,46,0.00,BKN,BKN,0.00,WeatherDisplay:10.37,2013-01-25 02:19:00,
2013-01-24 21:29:00,1.9,-14.6,30.08,West,281,9.0,0.0,45,0.00,BKN,BKN,0.00,WeatherDisplay:10.37,2013-01-25 02:29:00,
2013-01-24 21:39:00,1.6,-14.0,30.08,WNW,297,3.0,0.0,47,0.00,BKN,BKN,0.00,WeatherDisplay:10.37,2013-01-25 02:39:00,
2013-01-24 21:49:00,1.6,-14.9,30.09,WNW,289,5.0,0.0,45,0.00,BKN,BKN,0.00,WeatherDisplay:10.37,2013-01-25 02:49:00,
2013-01-24 21:59:00,1.6,-14.9,30.09,WNW,291,7.0,0.0,45,0.00,BKN,BKN,0.00,WeatherDisplay:10.37,2013-01-25 02:59:00,
2013-01-24 22:09:00,1.6,-14.0,30.09,WNW,293,3.0,0.0,47,0.00,BKN,BKN,0.00,WeatherDisplay:10.37,2013-01-25 03:09:00,
2013-01-24 22:19:00,1.4,-14.6,30.09,WNW,284,7.0,0.0,46,0.00,BKN,BKN,0.00,WeatherDisplay:10.37,2013-01-25 03:19:00,
2013-01-24 22:30:00,1.0,-15.0,30.11,WNW,285,9.0,0.0,46,0.00,BKN,BKN,0.00,WeatherDisplay:10.37,2013-01-25 03:30:00,
2013-01-24 22:40:00,1.0,-14.5,30.10,WNW,293,6.0,0.0,47,0.00,BKN,BKN,0.00,WeatherDisplay:10.37,2013-01-25 03:40:00,
2013-01-24 22:49:00,0.9,-14.7,30.11,NW,308,7.0,0.0,47,0.00,BKN,BKN,0.00,WeatherDisplay:10.37,2013-01-25 03:49:00,
2013-01-24 23:00:00,0.9,-14.7,30.09,WNW,290,7.0,0.0,47,0.00,BKN,BKN,0.00,WeatherDisplay:10.37,2013-01-25 04:00:00,
2013-01-24 23:09:00,0.7,-14.4,30.12,NW,319,7.0,0.0,48,0.00,BKN,BKN,0.00,WeatherDisplay:10.37,2013-01-25 04:09:00,
2013-01-24 23:19:00,0.5,-14.6,30.13,WNW,298,5.0,0.0,48,0.00,BKN,BKN,0.00,WeatherDisplay:10.37,2013-01-25 04:19:00,
2013-01-24 23:29:00,0.3,-14.4,30.12,WNW,288,6.0,0.0,49,0.00,BKN,BKN,0.00,WeatherDisplay:10.37,2013-01-25 04:29:00,
2013-01-24 23:39:00,0.3,-13.6,30.12,West,270,3.0,0.0,51,0.00,BKN,BKN,0.00,WeatherDisplay:10.37,2013-01-25 04:39:00,
2013-01-24 23:50:00,0.0,-13.9,30.12,NW,304,5.0,0.0,51,0.00,BKN,BKN,0.00,WeatherDisplay:10.37,2013-01-25 04:50:00,
2013-01-24 23:59:00,0.0,-13.5,30.14,West,273,8.0,0.0,52,0.00,BKN,BKN,0.00,WeatherDisplay:10.37,2013-01-25 04:59:00,